Wednesday, September 19, 2018, 6:41 PM GMT
Back to Local

CXMI, McNabs Island , N. S.

Location: , , Canada Lat: 44.6
Local Time: 6:41 PM GMT (18:41 GMT) Lon: -63.533
Time Zone: GMT Elev: 49 ft

Show me the last for .
Show Coded

Time T Td Feel RH Dir Speed Gust Alt SLP Vis Weather Sky Remarks
2018-09-19 18:00 61 54 - 78 50° 9 17 - 29.96 0 Peak wind: 19 mph (17 kts) from 40° at 28 min
2018-09-19 17:00 59 53 - 81 40° 10 18 - 29.96 0 None
2018-09-19 16:00 57 53 - 88 20° 10 - - 29.96 0 None
2018-09-19 15:00 57 53 - 87 10° 9 - - 29.94 0 None
2018-09-19 14:00 57 54 - 89 20° 9 - - 29.94 0 None
2018-09-19 13:00 58 53 - 82 30° 6 - - 29.90 0 None
2018-09-19 12:00 57 54 - 88 40° 8 - - 29.88 0 None
2018-09-19 11:00 57 54 - 90 20° 7 - - 29.86 0 None
2018-09-19 10:00 56 53 - 87 30° 7 - - 29.84 0 None
2018-09-19 09:00 57 55 - 93 10° 2 - - 29.83 0 None
2018-09-19 08:00 57 56 - 94 20° 5 - - 29.79 0 None
2018-09-19 07:00 58 57 - 94 60° 6 - - 29.79 0 None
2018-09-19 06:00 60 59 - 97 360° 3 - - 29.77 0 None
2018-09-19 05:00 60 58 - 96 360° 6 - - 29.75 0 None
2018-09-19 04:00 60 58 - 94 20° 8 - - 29.75 0 Peak wind: 20 mph (18 kts) from 30° at 09 min
2018-09-19 03:00 61 60 - 96 30° 12 18 - 29.75 0 Peak wind: 19 mph (17 kts) from 30° at 36 min
2018-09-19 02:00 65 65 - 97 10° 5 - - 29.75 0 None
2018-09-19 01:00 66 65 - 97 50° 5 - - 29.73 0 None
2018-09-19 00:00 65 66 - 103 110° 3 - - 29.76 0 None
2018-09-18 23:00 67 66 - 96 190° 2 - - 29.77 0 None
2018-09-18 22:00 68 67 - 95 270° 7 - - 29.75 0 Peak wind: 25 mph (22 kts) from 230° at 01 min
2018-09-18 21:00 69 67 - 92 240° 17 - - 29.74 0 Peak wind: 21 mph (19 kts) from 240° at 24 min
2018-09-18 20:00 71 67 76 85 240° 15 - - 29.75 0 Peak wind: 20 mph (18 kts) from 230° at 38 min
2018-09-18 19:00 72 67 76 83 240° 13 - - 29.76 0 None

Support USWX by starting your Amazon purchase here.